Aérodrome :
LOGIN :

S'inscrire | Disclaimer

   EN    FR    IT 

 










Légende :    VFR   VFR Marginal   IFR   IFR Intensif   IFR Très Intensif
Visi : 
Plafond : 
>= 8 km
>= 3000ft
5 à 8 km
1000 à 3000 ft
1500m à 5 km
500 à 1000 ft
800 à 1500m
200 à 500 ft
< 800m
< 200 ft
Symboles :   Orages  Brouillard  Fortes neiges  Fortes précipitations  Vent > 20 kt
SIGMETs :   Divers  Orages  Givrage  Turbulence  Onde Orograph.  Cendres Volcan.






- Altitude de l'aérodrome : 604 ft
- Code IATA : LCJ


EPLL - Lodz

DERNIER METAR :
  • 291330Z 20011KT 120V230 CAVOK 07/M03 Q1003

METARs EXPIRÉS :
  • 291300Z 18012KT 140V220 CAVOK 07/M03 Q1003
  • 291230Z 19011KT 130V230 CAVOK 06/M03 Q1003
  • 291200Z 20011KT 140V240 CAVOK 06/M04 Q1004
  • 291130Z 19013G27KT 140V240 CAVOK 06/M03 Q1004
  • 291100Z 20012G22KT 170V240 CAVOK 06/M04 Q1005

TAF TAF EPLL
Valide du 29 à 12h jusqu'au 01 à 12h UTC


291130Z 2912/0112 20015KT 9999 SCT040
TEMPO 2912/2916 19018G32KT
PROB40
TEMPO 2916/0107 -RA BKN007 BKN012
PROB40
TEMPO 0107/0112 -SHRA SCT020CB



MET'MAP, la Météo Aéronautique d'un coup d'oeil ! - Copyright ORBIFLY Décembre 2007 - Disclaimer

ORBIFLY MET'MAP TEAM :

Programmation & Développement : Alexandra Zaïnal
Sur une idée originale de : Baudouin d'Aumeries
Assistance à la programmation : Marc-Olivier Méhu
Soutien technique & logistique : Manuel Goepfert

Contact : metmap@orbifly.com




SOURCES & CREDITS :

   NOAA